createdAt,value
2019-03-26T00:01:42.021Z,41.72
2019-03-26T00:04:10.454Z,45.18
2019-03-26T00:06:38.747Z,47.51
2019-03-26T00:09:08.735Z,46.46
2019-03-26T00:11:37.323Z,44.43
2019-03-26T00:14:05.599Z,45.70
2019-03-26T00:16:34.059Z,43.61
2019-03-26T00:19:02.329Z,41.94
2019-03-26T00:21:30.600Z,41.65
2019-03-26T00:23:58.862Z,40.42
2019-03-26T00:26:27.124Z,39.63
2019-03-26T00:28:55.402Z,40.68
2019-03-26T00:31:23.652Z,40.57
2019-03-26T00:33:51.944Z,40.39
2019-03-26T00:36:20.254Z,39.89
2019-03-26T00:38:48.573Z,39.53
2019-03-26T00:41:16.804Z,38.78
2019-03-26T00:43:45.070Z,40.04
2019-03-26T00:46:14.194Z,38.91
2019-03-26T00:48:42.459Z,39.86
2019-03-26T00:51:10.722Z,39.29
2019-03-26T00:53:38.977Z,40.26
2019-03-26T00:56:07.262Z,40.53
2019-03-26T00:58:35.526Z,39.92
2019-03-26T01:01:03.796Z,39.92
2019-03-26T01:03:32.155Z,39.32
2019-03-26T01:06:00.433Z,39.33
2019-03-26T01:08:28.717Z,38.64
2019-03-26T01:10:56.982Z,38.19
2019-03-26T01:13:25.224Z,37.63
2019-03-26T01:15:53.499Z,37.92
2019-03-26T01:18:21.763Z,40.29
2019-03-26T01:20:50.024Z,39.22
2019-03-26T01:23:18.292Z,39.67
2019-03-26T01:25:46.560Z,38.34
2019-03-26T01:28:14.846Z,38.09
2019-03-26T01:30:43.135Z,38.14
2019-03-26T01:33:11.417Z,37.81
2019-03-26T01:35:39.677Z,39.60
2019-03-26T01:38:07.996Z,38.30
2019-03-26T01:40:36.567Z,40.74
2019-03-26T01:43:04.906Z,40.43
2019-03-26T01:45:33.163Z,41.32
2019-03-26T01:48:01.434Z,38.88
2019-03-26T01:50:29.782Z,38.30
2019-03-26T01:52:58.180Z,38.10
2019-03-26T01:55:26.438Z,37.06
2019-03-26T01:57:54.763Z,37.79
2019-03-26T02:00:23.104Z,38.38
2019-03-26T02:02:51.371Z,37.80
2019-03-26T02:05:19.636Z,37.92
2019-03-26T02:07:47.908Z,37.51
2019-03-26T02:10:16.241Z,38.78
2019-03-26T02:12:44.490Z,38.36
2019-03-26T02:15:15.946Z,37.37
2019-03-26T02:17:44.198Z,38.38
2019-03-26T02:20:12.450Z,38.85
2019-03-26T02:22:40.717Z,37.88
2019-03-26T02:25:09.025Z,38.72
2019-03-26T02:27:37.268Z,38.94
2019-03-26T02:30:06.391Z,38.59
2019-03-26T02:32:34.635Z,37.55
2019-03-26T02:35:17.014Z,37.14
2019-03-26T02:37:32.950Z,38.21
2019-03-26T02:40:01.223Z,37.90
2019-03-26T02:42:31.490Z,38.13
2019-03-26T02:44:59.745Z,38.80
2019-03-26T02:47:28.013Z,39.03
2019-03-26T02:49:56.337Z,38.65
2019-03-26T02:52:24.669Z,38.32
2019-03-26T02:54:52.968Z,38.80
2019-03-26T02:57:21.232Z,38.28
2019-03-26T02:59:49.508Z,40.12
2019-03-26T03:02:17.795Z,38.85
2019-03-26T03:04:46.109Z,38.62
2019-03-26T03:07:14.366Z,37.82
2019-03-26T03:09:42.631Z,38.45
2019-03-26T03:12:10.902Z,38.19
2019-03-26T03:14:39.137Z,37.56
2019-03-26T03:17:07.485Z,37.09
2019-03-26T03:19:35.725Z,38.48
2019-03-26T03:22:04.001Z,38.23
2019-03-26T03:24:32.269Z,37.79
2019-03-26T03:27:00.815Z,38.93
2019-03-26T03:29:29.076Z,37.28
2019-03-26T03:31:57.332Z,36.97
2019-03-26T03:34:25.684Z,40.15
2019-03-26T03:36:54.215Z,38.93
2019-03-26T03:39:22.499Z,38.86
2019-03-26T03:41:50.763Z,39.80
2019-03-26T03:44:19.058Z,40.86
2019-03-26T03:46:47.978Z,39.34
2019-03-26T03:49:18.647Z,38.91
2019-03-26T03:51:47.180Z,40.31
2019-03-26T03:54:15.704Z,39.12
2019-03-26T03:56:44.532Z,39.44
2019-03-26T03:59:12.807Z,41.38
2019-03-26T04:01:41.073Z,41.04
2019-03-26T04:04:09.418Z,41.48
2019-03-26T04:06:37.730Z,39.72
2019-03-26T04:09:06.061Z,42.44
2019-03-26T04:11:34.327Z,39.31
2019-03-26T04:14:02.685Z,39.25
2019-03-26T04:16:30.936Z,40.46
2019-03-26T04:19:00.538Z,41.37
2019-03-26T04:21:28.888Z,39.08
2019-03-26T04:23:58.177Z,41.30
2019-03-26T04:26:26.563Z,40.58
2019-03-26T04:28:54.879Z,38.10
2019-03-26T04:31:23.150Z,37.65
2019-03-26T04:33:51.416Z,37.66
2019-03-26T04:36:26.123Z,37.96
2019-03-26T04:38:49.665Z,37.63
2019-03-26T04:41:17.935Z,38.99
2019-03-26T04:43:46.276Z,38.88
2019-03-26T04:46:14.533Z,38.63
2019-03-26T04:48:42.792Z,39.49
2019-03-26T04:51:11.173Z,40.04
2019-03-26T04:53:39.452Z,40.15
2019-03-26T04:56:07.715Z,39.80
2019-03-26T04:58:35.987Z,38.96
2019-03-26T05:01:04.269Z,39.68
2019-03-26T05:03:32.653Z,38.41
2019-03-26T05:06:00.921Z,38.37
2019-03-26T05:08:29.184Z,37.29
2019-03-26T05:10:57.469Z,38.04
2019-03-26T05:13:25.758Z,38.51
2019-03-26T05:15:54.022Z,38.07
2019-03-26T05:18:22.304Z,38.10
2019-03-26T05:20:50.592Z,39.35
2019-03-26T05:23:18.897Z,39.83
2019-03-26T05:25:47.172Z,39.94
2019-03-26T05:28:15.430Z,40.00
2019-03-26T05:30:43.706Z,37.49
2019-03-26T05:33:12.004Z,39.52
2019-03-26T05:35:40.299Z,40.22
2019-03-26T05:38:08.659Z,41.18
2019-03-26T05:40:36.954Z,38.62
2019-03-26T05:43:05.469Z,38.63
2019-03-26T05:45:33.738Z,39.45
2019-03-26T05:48:02.007Z,37.86
2019-03-26T05:50:30.337Z,40.35
2019-03-26T05:52:58.592Z,41.73
2019-03-26T05:55:26.879Z,42.83
2019-03-26T05:57:55.157Z,41.17
2019-03-26T06:00:24.769Z,43.03
2019-03-26T06:02:53.039Z,40.98
2019-03-26T06:05:21.815Z,39.75
2019-03-26T06:07:50.090Z,42.55
2019-03-26T06:10:18.362Z,40.77
2019-03-26T06:12:46.636Z,41.56
2019-03-26T06:15:14.931Z,40.83
2019-03-26T06:17:43.234Z,39.24
2019-03-26T06:20:11.550Z,39.41
2019-03-26T06:22:39.877Z,41.97
2019-03-26T06:25:08.239Z,39.96
2019-03-26T06:27:36.506Z,41.48
2019-03-26T06:30:07.491Z,42.18
2019-03-26T06:32:35.820Z,42.96
2019-03-26T06:35:06.342Z,42.17
2019-03-26T06:37:34.594Z,42.98
2019-03-26T06:40:03.020Z,41.74
2019-03-26T06:42:31.292Z,41.72
2019-03-26T06:44:59.564Z,40.58
2019-03-26T06:47:27.848Z,41.35
2019-03-26T06:49:56.116Z,41.34
2019-03-26T06:52:24.971Z,41.52
2019-03-26T06:54:53.262Z,39.69
2019-03-26T06:57:34.618Z,39.88
2019-03-26T06:59:51.547Z,42.90
2019-03-26T07:02:19.809Z,42.35
2019-03-26T07:04:48.249Z,42.82
2019-03-26T07:07:16.720Z,45.32
2019-03-26T07:09:44.979Z,43.75
2019-03-26T07:12:13.253Z,44.43
2019-03-26T07:14:41.584Z,43.62
2019-03-26T07:17:09.889Z,44.16
2019-03-26T07:19:38.133Z,45.44
2019-03-26T07:22:06.392Z,43.60
2019-03-26T07:24:34.717Z,43.33
2019-03-26T07:27:03.044Z,42.70
2019-03-26T07:29:31.333Z,43.16
2019-03-26T07:31:59.595Z,42.83
2019-03-26T07:34:27.877Z,43.47
2019-03-26T07:36:56.133Z,43.63
2019-03-26T07:39:24.441Z,41.23
2019-03-26T07:41:52.932Z,41.84
2019-03-26T07:44:21.263Z,41.81
2019-03-26T07:46:49.554Z,41.26
2019-03-26T07:49:17.887Z,42.64
2019-03-26T07:51:46.236Z,40.95
2019-03-26T07:54:14.493Z,42.86
2019-03-26T07:56:42.769Z,40.51
2019-03-26T07:59:11.032Z,41.78
2019-03-26T08:01:39.353Z,41.97
2019-03-26T08:04:07.602Z,39.98
2019-03-26T08:06:35.872Z,41.81
2019-03-26T08:09:05.787Z,44.70
2019-03-26T08:11:34.106Z,43.41
2019-03-26T08:14:02.495Z,40.90
2019-03-26T08:16:30.740Z,41.21
2019-03-26T08:18:59.005Z,41.64
2019-03-26T08:21:27.322Z,42.30
2019-03-26T08:23:56.373Z,42.58
2019-03-26T08:26:24.682Z,39.89
2019-03-26T08:28:52.953Z,39.71
2019-03-26T08:31:21.286Z,39.88
2019-03-26T08:33:49.562Z,40.06
2019-03-26T08:36:17.936Z,38.95
2019-03-26T08:38:46.201Z,36.97
2019-03-26T08:41:14.722Z,38.38
2019-03-26T08:43:42.976Z,38.84
2019-03-26T08:46:11.266Z,37.75
2019-03-26T08:48:39.531Z,38.39
2019-03-26T08:51:07.804Z,40.07
2019-03-26T08:53:36.061Z,39.86
2019-03-26T08:56:04.357Z,39.53
2019-03-26T08:58:32.651Z,39.06
2019-03-26T09:01:01.074Z,38.66
2019-03-26T09:03:29.370Z,39.70
2019-03-26T09:05:57.644Z,37.85
2019-03-26T09:08:25.994Z,38.19
2019-03-26T09:10:54.317Z,37.97
2019-03-26T09:13:22.576Z,36.04
2019-03-26T09:15:50.872Z,35.54
2019-03-26T09:18:19.279Z,35.60
2019-03-26T09:20:47.594Z,36.18
2019-03-26T09:23:15.871Z,37.62
2019-03-26T09:25:44.155Z,38.15
2019-03-26T09:28:12.439Z,38.18
2019-03-26T09:30:40.766Z,38.43
2019-03-26T09:33:09.082Z,36.15
2019-03-26T09:35:37.351Z,37.06
2019-03-26T09:38:05.620Z,35.94
2019-03-26T09:40:33.956Z,35.48
2019-03-26T09:43:02.162Z,36.09
2019-03-26T09:45:30.507Z,35.53
2019-03-26T09:47:58.765Z,34.89
2019-03-26T09:50:35.082Z,35.05
2019-03-26T09:53:03.868Z,36.78
2019-03-26T09:55:32.143Z,34.17
2019-03-26T09:58:00.405Z,34.87
2019-03-26T10:00:30.243Z,35.18
2019-03-26T10:02:58.513Z,33.76
2019-03-26T10:05:26.839Z,34.51
2019-03-26T10:07:55.130Z,35.28
2019-03-26T10:10:23.403Z,34.87
2019-03-26T10:12:51.657Z,33.59
2019-03-26T10:15:19.920Z,33.40
2019-03-26T10:17:48.355Z,33.75
2019-03-26T10:20:16.694Z,34.99
2019-03-26T10:22:44.979Z,33.53
2019-03-26T10:25:13.238Z,33.33
2019-03-26T10:27:41.524Z,33.67
2019-03-26T10:30:12.430Z,33.80
2019-03-26T10:32:40.987Z,33.03
2019-03-26T10:35:10.501Z,33.68
2019-03-26T10:37:38.802Z,34.60
2019-03-26T10:40:08.004Z,32.81
2019-03-26T10:42:36.311Z,32.54
2019-03-26T10:45:06.330Z,33.35
2019-03-26T10:47:34.677Z,33.74
2019-03-26T10:50:03.040Z,34.24
2019-03-26T10:52:34.426Z,33.84
2019-03-26T10:55:01.294Z,34.45
2019-03-26T10:57:29.643Z,33.08
2019-03-26T10:59:57.919Z,32.86
2019-03-26T11:02:26.212Z,33.43
2019-03-26T11:04:54.483Z,32.92
2019-03-26T11:07:22.790Z,32.08
2019-03-26T11:09:51.079Z,31.63
2019-03-26T11:12:19.388Z,33.95
2019-03-26T11:14:47.681Z,33.49
2019-03-26T11:17:15.971Z,33.76
2019-03-26T11:19:46.349Z,32.97
2019-03-26T11:22:14.225Z,33.04
2019-03-26T11:24:42.504Z,31.91
2019-03-26T11:27:10.790Z,31.11
2019-03-26T11:29:39.077Z,31.95
2019-03-26T11:32:07.341Z,31.99
2019-03-26T11:34:35.702Z,31.77
2019-03-26T11:37:03.956Z,32.19
2019-03-26T11:39:33.210Z,33.04
2019-03-26T11:42:01.602Z,32.23
2019-03-26T11:44:29.958Z,32.35
2019-03-26T11:46:58.291Z,30.48
2019-03-26T11:49:26.580Z,31.52
2019-03-26T11:51:54.876Z,32.99
2019-03-26T11:54:23.165Z,32.98
2019-03-26T11:56:51.443Z,32.84
2019-03-26T11:59:19.703Z,32.61
2019-03-26T12:01:48.068Z,32.51
2019-03-26T12:04:16.319Z,31.69
2019-03-26T12:06:44.612Z,33.31
2019-03-26T12:09:17.055Z,31.86
2019-03-26T12:11:54.957Z,32.12
2019-03-26T12:14:23.216Z,32.39
2019-03-26T12:16:51.479Z,32.41
2019-03-26T12:19:19.772Z,33.38
2019-03-26T12:21:48.055Z,32.18
2019-03-26T12:24:16.345Z,31.91
2019-03-26T12:26:44.671Z,31.91
2019-03-26T12:29:12.923Z,31.06
2019-03-26T12:31:41.227Z,31.26
2019-03-26T12:34:09.575Z,31.45
2019-03-26T12:36:40.074Z,28.86
2019-03-26T12:39:07.891Z,30.17
2019-03-26T12:41:38.516Z,28.96
2019-03-26T12:44:06.193Z,30.30
2019-03-26T12:46:34.517Z,30.04
2019-03-26T12:49:02.841Z,30.67
2019-03-26T12:51:31.079Z,31.73
2019-03-26T12:53:59.367Z,30.32
2019-03-26T12:56:27.665Z,30.43
2019-03-26T12:58:55.923Z,32.24
2019-03-26T13:01:24.221Z,31.39
2019-03-26T13:03:52.546Z,30.28
2019-03-26T13:06:20.908Z,29.91
2019-03-26T13:08:49.173Z,30.43
2019-03-26T13:11:17.439Z,30.95
2019-03-26T13:13:45.729Z,31.55
2019-03-26T13:16:13.986Z,31.55
2019-03-26T13:18:42.277Z,32.35
2019-03-26T13:21:10.535Z,33.19
2019-03-26T13:23:38.862Z,33.06
2019-03-26T13:26:07.327Z,31.20
2019-03-26T13:28:35.600Z,30.14
2019-03-26T13:31:03.861Z,30.46
2019-03-26T13:33:32.130Z,31.32
2019-03-26T13:36:00.405Z,30.50
2019-03-26T13:38:28.701Z,31.19
2019-03-26T13:40:56.988Z,31.70
2019-03-26T13:43:25.251Z,31.83
2019-03-26T13:45:53.539Z,31.32
2019-03-26T13:48:21.813Z,31.31
2019-03-26T13:50:50.088Z,30.31
2019-03-26T13:53:18.369Z,30.64
2019-03-26T13:55:49.162Z,30.78
2019-03-26T13:58:17.475Z,30.64
2019-03-26T14:00:45.741Z,30.68
2019-03-26T14:03:14.003Z,32.94
2019-03-26T14:05:42.289Z,32.55
2019-03-26T14:08:10.624Z,31.81
2019-03-26T14:10:41.164Z,32.97
2019-03-26T14:13:08.964Z,33.19
2019-03-26T14:15:37.384Z,32.55
2019-03-26T14:18:05.581Z,31.94
2019-03-26T14:20:33.862Z,32.26
2019-03-26T14:23:02.120Z,31.56
2019-03-26T14:25:30.417Z,30.74
2019-03-26T14:27:58.695Z,30.35
2019-03-26T14:30:42.469Z,29.07
2019-03-26T14:33:10.724Z,28.94
2019-03-26T14:35:39.126Z,29.40
2019-03-26T14:38:07.556Z,28.86
2019-03-26T14:40:35.889Z,29.01
2019-03-26T14:43:04.471Z,30.55
2019-03-26T14:45:32.770Z,28.69
2019-03-26T14:48:01.022Z,29.14
2019-03-26T14:50:29.274Z,28.27
2019-03-26T14:52:57.547Z,27.58
2019-03-26T14:55:25.878Z,28.65
2019-03-26T14:57:54.224Z,29.20
2019-03-26T15:00:22.498Z,28.23
2019-03-26T15:02:50.765Z,27.51
2019-03-26T15:05:19.145Z,28.08
2019-03-26T15:07:47.516Z,27.48
2019-03-26T15:10:15.786Z,27.75
2019-03-26T15:12:44.072Z,28.70
2019-03-26T15:15:12.413Z,28.86
2019-03-26T15:17:40.693Z,28.96
2019-03-26T15:20:09.141Z,28.44
2019-03-26T15:22:37.403Z,27.92
2019-03-26T15:25:06.690Z,27.21
2019-03-26T15:27:34.963Z,28.56
2019-03-26T15:30:04.562Z,29.08
2019-03-26T15:32:32.821Z,28.86
2019-03-26T15:35:01.097Z,28.53
2019-03-26T15:37:29.361Z,28.83
2019-03-26T15:39:57.627Z,28.05
2019-03-26T15:42:26.977Z,28.38
2019-03-26T15:44:55.347Z,27.34
2019-03-26T15:47:27.996Z,28.85
2019-03-26T15:50:07.582Z,28.22
2019-03-26T15:52:37.555Z,28.08
2019-03-26T15:55:07.676Z,28.58
2019-03-26T15:57:35.942Z,28.13
2019-03-26T16:00:06.849Z,27.75
2019-03-26T16:02:35.159Z,28.86
2019-03-26T16:05:04.284Z,28.47
2019-03-26T16:07:33.248Z,29.33
2019-03-26T16:10:01.598Z,29.62
2019-03-26T16:12:40.546Z,29.70
2019-03-26T16:14:59.874Z,29.61
2019-03-26T16:17:28.133Z,29.73
2019-03-26T16:19:56.491Z,29.43
2019-03-26T16:22:24.782Z,29.68
2019-03-26T16:24:53.422Z,30.42
2019-03-26T16:27:21.902Z,29.43
2019-03-26T16:29:50.159Z,29.17
2019-03-26T16:32:18.431Z,29.80
2019-03-26T16:34:46.686Z,30.44
2019-03-26T16:37:14.935Z,30.54
2019-03-26T16:39:43.227Z,29.92
2019-03-26T16:42:11.482Z,29.96
2019-03-26T16:44:39.749Z,29.92
2019-03-26T16:47:08.008Z,29.75
2019-03-26T16:49:36.346Z,29.34
2019-03-26T16:52:04.684Z,29.57
2019-03-26T16:54:32.964Z,29.94
2019-03-26T16:57:01.230Z,29.90
2019-03-26T16:59:29.544Z,30.03
2019-03-26T17:01:57.812Z,31.34
2019-03-26T17:04:26.087Z,30.89
2019-03-26T17:06:54.371Z,29.70
2019-03-26T17:09:22.654Z,31.17
2019-03-26T17:12:02.528Z,30.87
2019-03-26T17:14:20.929Z,30.95
2019-03-26T17:16:49.197Z,30.89
2019-03-26T17:19:17.543Z,31.77
2019-03-26T17:21:45.890Z,33.03
2019-03-26T17:24:14.177Z,32.35
2019-03-26T17:26:42.454Z,32.42
2019-03-26T17:29:10.802Z,32.49
2019-03-26T17:31:39.061Z,32.78
2019-03-26T17:34:07.324Z,30.86
2019-03-26T17:36:35.673Z,31.91
2019-03-26T17:39:05.862Z,31.52
2019-03-26T17:41:34.164Z,31.55
2019-03-26T17:44:02.425Z,31.29
2019-03-26T17:46:30.686Z,30.98
2019-03-26T17:48:58.991Z,32.96
2019-03-26T17:51:27.273Z,31.48
2019-03-26T17:53:55.554Z,30.97
2019-03-26T17:56:23.814Z,30.78
2019-03-26T17:58:52.101Z,31.38
2019-03-26T18:01:20.360Z,30.96
2019-03-26T18:03:48.799Z,30.70
2019-03-26T18:06:17.216Z,31.19
2019-03-26T18:08:45.715Z,32.04
2019-03-26T18:11:14.151Z,32.90
2019-03-26T18:13:42.590Z,32.61
2019-03-26T18:16:10.853Z,32.86
2019-03-26T18:18:39.127Z,32.48
2019-03-26T18:21:08.204Z,32.89
2019-03-26T18:23:36.549Z,31.83
2019-03-26T18:26:04.914Z,33.47
2019-03-26T18:28:33.176Z,32.35
2019-03-26T18:31:01.438Z,32.30
2019-03-26T18:33:29.716Z,32.31
2019-03-26T18:35:58.020Z,31.57
2019-03-26T18:38:26.288Z,30.93
2019-03-26T18:40:54.564Z,30.77
2019-03-26T18:43:22.828Z,32.27
2019-03-26T18:45:51.119Z,33.11
2019-03-26T18:48:19.865Z,32.94
2019-03-26T18:50:48.144Z,32.72
2019-03-26T18:53:16.435Z,32.17
2019-03-26T18:55:44.702Z,32.53
2019-03-26T18:58:13.047Z,31.13
2019-03-26T19:00:41.338Z,33.38
2019-03-26T19:03:09.885Z,33.25
2019-03-26T19:05:38.163Z,33.51
2019-03-26T19:08:06.496Z,32.97
2019-03-26T19:10:36.112Z,33.03
2019-03-26T19:13:18.017Z,32.52
2019-03-26T19:15:34.813Z,33.06
2019-03-26T19:18:03.228Z,32.48
2019-03-26T19:20:31.497Z,32.45
2019-03-26T19:22:59.847Z,33.58
2019-03-26T19:25:28.168Z,32.57
2019-03-26T19:27:56.488Z,33.19
2019-03-26T19:30:24.773Z,32.89
2019-03-26T19:32:53.055Z,33.42
2019-03-26T19:35:21.332Z,33.29
2019-03-26T19:37:50.156Z,34.37
2019-03-26T19:40:22.274Z,33.44
2019-03-26T19:42:52.110Z,33.16
2019-03-26T19:45:20.682Z,34.10
2019-03-26T19:47:50.580Z,34.71
2019-03-26T19:50:19.086Z,34.24
2019-03-26T19:52:47.594Z,33.17
2019-03-26T19:55:19.201Z,32.85
2019-03-26T19:57:47.555Z,33.34
2019-03-26T20:00:16.773Z,34.64
2019-03-26T20:02:45.132Z,34.19
2019-03-26T20:05:13.476Z,33.62
2019-03-26T20:07:41.772Z,33.69
2019-03-26T20:10:11.386Z,34.03
2019-03-26T20:12:39.638Z,33.32
2019-03-26T20:15:09.493Z,33.18
2019-03-26T20:17:37.763Z,34.83
2019-03-26T20:20:06.858Z,33.20
2019-03-26T20:22:35.131Z,33.45
2019-03-26T20:25:04.061Z,33.74
2019-03-26T20:27:32.322Z,33.84
2019-03-26T20:30:00.600Z,33.47
2019-03-26T20:32:39.053Z,34.47
2019-03-26T20:35:11.415Z,34.38
2019-03-26T20:37:39.743Z,34.47
2019-03-26T20:40:09.450Z,35.05
2019-03-26T20:42:38.389Z,34.75
2019-03-26T20:45:27.578Z,34.21
2019-03-26T20:47:55.878Z,34.38
2019-03-26T20:50:24.269Z,35.37
2019-03-26T20:52:52.545Z,35.54
2019-03-26T20:55:32.109Z,35.07
2019-03-26T20:58:00.787Z,35.53
2019-03-26T21:00:42.383Z,35.82
2019-03-26T21:03:10.757Z,35.56
2019-03-26T21:05:39.554Z,36.24
2019-03-26T21:08:07.914Z,34.50
2019-03-26T21:10:36.243Z,33.90
2019-03-26T21:13:04.661Z,34.77
2019-03-26T21:15:32.924Z,34.41
2019-03-26T21:18:01.231Z,34.09
2019-03-26T21:20:29.511Z,34.56
2019-03-26T21:22:57.797Z,33.29
2019-03-26T21:25:26.074Z,33.41
2019-03-26T21:27:54.370Z,33.79
2019-03-26T21:30:22.698Z,33.69
2019-03-26T21:32:50.978Z,35.65
2019-03-26T21:35:19.444Z,34.18
2019-03-26T21:37:47.706Z,34.74
2019-03-26T21:40:16.231Z,35.53
2019-03-26T21:42:44.542Z,37.55
2019-03-26T21:45:13.174Z,38.54
2019-03-26T21:47:41.462Z,38.07
2019-03-26T21:50:10.910Z,37.02
2019-03-26T21:52:39.188Z,38.99
2019-03-26T21:55:08.607Z,37.46
2019-03-26T21:57:36.897Z,34.69
2019-03-26T22:00:09.000Z,33.82
2019-03-26T22:05:07.131Z,34.31
2019-03-26T22:07:35.404Z,34.51
2019-03-26T22:10:04.633Z,36.22
2019-03-26T22:12:32.948Z,34.76
2019-03-26T22:15:01.317Z,34.69
2019-03-26T22:17:29.603Z,34.78
2019-03-26T22:19:57.901Z,35.67
2019-03-26T22:22:26.181Z,35.60
2019-03-26T22:24:54.493Z,36.28
2019-03-26T22:27:22.795Z,38.79
2019-03-26T22:29:51.090Z,37.89
2019-03-26T22:32:19.451Z,38.09
2019-03-26T22:34:47.681Z,37.89
2019-03-26T22:37:16.025Z,37.70
2019-03-26T22:39:44.317Z,37.52
2019-03-26T22:42:12.731Z,35.74
2019-03-26T22:44:41.121Z,37.14
2019-03-26T22:47:09.417Z,36.48
2019-03-26T22:49:37.702Z,39.27
2019-03-26T22:52:06.000Z,38.50
2019-03-26T22:54:34.296Z,39.13
2019-03-26T22:57:02.590Z,39.28
2019-03-26T22:59:30.872Z,39.79
2019-03-26T23:01:59.221Z,39.85
2019-03-26T23:04:27.521Z,41.06
2019-03-26T23:06:55.785Z,39.20
2019-03-26T23:09:24.067Z,39.76
2019-03-26T23:11:52.370Z,37.89
2019-03-26T23:14:20.684Z,37.13
2019-03-26T23:16:49.028Z,36.72
2019-03-26T23:19:17.290Z,35.77
2019-03-26T23:21:45.574Z,38.35
2019-03-26T23:24:13.823Z,40.01
2019-03-26T23:26:42.104Z,40.98
2019-03-26T23:29:10.362Z,38.21
2019-03-26T23:31:38.655Z,39.35
2019-03-26T23:34:06.989Z,40.17
2019-03-26T23:36:35.281Z,38.32
2019-03-26T23:39:04.527Z,37.12
2019-03-26T23:41:32.887Z,37.25
2019-03-26T23:44:01.182Z,36.29
2019-03-26T23:46:29.449Z,35.73
2019-03-26T23:48:57.723Z,35.59
2019-03-26T23:51:25.999Z,35.35
2019-03-26T23:53:54.302Z,37.37
2019-03-26T23:56:22.575Z,37.67
2019-03-26T23:58:50.925Z,36.77
